sensor_id;sensor_type;location;lat;lon;timestamp;P1;durP1;ratioP1;P2;durP2;ratioP2
23121;SDS011;11730;51.248;22.534;2022-08-18T00:02:08;26.65;;;18.52;;
23121;SDS011;11730;51.248;22.534;2022-08-18T00:04:53;23.95;;;18.17;;
23121;SDS011;11730;51.248;22.534;2022-08-18T00:07:26;24.25;;;18.48;;
23121;SDS011;11730;51.248;22.534;2022-08-18T00:09:56;26.08;;;18.20;;
23121;SDS011;11730;51.248;22.534;2022-08-18T00:12:27;24.35;;;18.40;;
23121;SDS011;11730;51.248;22.534;2022-08-18T00:15:00;26.52;;;18.42;;
23121;SDS011;11730;51.248;22.534;2022-08-18T00:17:30;24.38;;;17.13;;
23121;SDS011;11730;51.248;22.534;2022-08-18T00:19:58;24.40;;;17.60;;
23121;SDS011;11730;51.248;22.534;2022-08-18T00:22:25;21.38;;;16.55;;
23121;SDS011;11730;51.248;22.534;2022-08-18T00:24:53;22.70;;;16.92;;
23121;SDS011;11730;51.248;22.534;2022-08-18T00:27:23;23.10;;;18.35;;
23121;SDS011;11730;51.248;22.534;2022-08-18T00:29:56;23.02;;;18.27;;
23121;SDS011;11730;51.248;22.534;2022-08-18T00:32:31;24.02;;;17.55;;
23121;SDS011;11730;51.248;22.534;2022-08-18T00:37:43;26.27;;;19.00;;
23121;SDS011;11730;51.248;22.534;2022-08-18T00:40:12;22.08;;;16.85;;
23121;SDS011;11730;51.248;22.534;2022-08-18T00:42:44;24.67;;;17.13;;
23121;SDS011;11730;51.248;22.534;2022-08-18T00:45:17;22.52;;;17.10;;
23121;SDS011;11730;51.248;22.534;2022-08-18T00:47:47;20.92;;;17.23;;
23121;SDS011;11730;51.248;22.534;2022-08-18T00:50:21;26.73;;;17.48;;
23121;SDS011;11730;51.248;22.534;2022-08-18T00:52:55;21.90;;;16.63;;
23121;SDS011;11730;51.248;22.534;2022-08-18T00:55:30;22.13;;;17.02;;
23121;SDS011;11730;51.248;22.534;2022-08-18T00:57:59;26.50;;;17.27;;
23121;SDS011;11730;51.248;22.534;2022-08-18T01:00:32;22.35;;;18.25;;
23121;SDS011;11730;51.248;22.534;2022-08-18T01:03:00;25.80;;;17.08;;
23121;SDS011;11730;51.248;22.534;2022-08-18T01:05:36;21.93;;;18.10;;
23121;SDS011;11730;51.248;22.534;2022-08-18T01:08:18;23.58;;;17.80;;
23121;SDS011;11730;51.248;22.534;2022-08-18T01:10:54;24.85;;;17.02;;
23121;SDS011;11730;51.248;22.534;2022-08-18T01:13:26;22.27;;;17.45;;
23121;SDS011;11730;51.248;22.534;2022-08-18T01:15:56;24.45;;;17.63;;
23121;SDS011;11730;51.248;22.534;2022-08-18T01:18:23;29.40;;;17.65;;
23121;SDS011;11730;51.248;22.534;2022-08-18T01:21:11;24.23;;;18.35;;
23121;SDS011;11730;51.248;22.534;2022-08-18T01:24:03;21.08;;;17.50;;
23121;SDS011;11730;51.248;22.534;2022-08-18T01:26:34;28.05;;;18.30;;
23121;SDS011;11730;51.248;22.534;2022-08-18T01:29:10;24.65;;;18.02;;
23121;SDS011;11730;51.248;22.534;2022-08-18T01:31:49;26.38;;;17.48;;
23121;SDS011;11730;51.248;22.534;2022-08-18T01:34:25;21.50;;;17.33;;
23121;SDS011;11730;51.248;22.534;2022-08-18T01:36:54;24.35;;;17.48;;
23121;SDS011;11730;51.248;22.534;2022-08-18T01:39:22;28.35;;;18.52;;
23121;SDS011;11730;51.248;22.534;2022-08-18T01:42:09;22.67;;;18.25;;
23121;SDS011;11730;51.248;22.534;2022-08-18T01:44:38;29.73;;;18.45;;
23121;SDS011;11730;51.248;22.534;2022-08-18T01:47:07;26.33;;;18.30;;
23121;SDS011;11730;51.248;22.534;2022-08-18T01:49:36;24.77;;;18.52;;
23121;SDS011;11730;51.248;22.534;2022-08-18T01:52:05;24.77;;;18.40;;
23121;SDS011;11730;51.248;22.534;2022-08-18T01:54:32;27.35;;;19.00;;
23121;SDS011;11730;51.248;22.534;2022-08-18T01:57:00;24.67;;;17.67;;
23121;SDS011;11730;51.248;22.534;2022-08-18T01:59:27;24.75;;;17.90;;
23121;SDS011;11730;51.248;22.534;2022-08-18T02:01:54;27.67;;;18.52;;
23121;SDS011;11730;51.248;22.534;2022-08-18T02:04:24;23.08;;;18.65;;
23121;SDS011;11730;51.248;22.534;2022-08-18T02:07:02;22.42;;;16.88;;
23121;SDS011;11730;51.248;22.534;2022-08-18T02:09:31;26.50;;;18.92;;
23121;SDS011;11730;51.248;22.534;2022-08-18T02:11:59;26.83;;;19.95;;
23121;SDS011;11730;51.248;22.534;2022-08-18T02:14:27;24.48;;;18.98;;
23121;SDS011;11730;51.248;22.534;2022-08-18T02:16:57;28.35;;;19.75;;
23121;SDS011;11730;51.248;22.534;2022-08-18T02:19:31;24.83;;;19.10;;
23121;SDS011;11730;51.248;22.534;2022-08-18T02:21:59;25.73;;;20.23;;
23121;SDS011;11730;51.248;22.534;2022-08-18T02:24:27;28.15;;;19.90;;
23121;SDS011;11730;51.248;22.534;2022-08-18T02:26:54;26.45;;;20.60;;
23121;SDS011;11730;51.248;22.534;2022-08-18T02:29:21;27.38;;;20.70;;
23121;SDS011;11730;51.248;22.534;2022-08-18T02:31:47;33.15;;;22.35;;
23121;SDS011;11730;51.248;22.534;2022-08-18T02:34:15;31.35;;;21.58;;
23121;SDS011;11730;51.248;22.534;2022-08-18T02:36:43;28.60;;;21.40;;
23121;SDS011;11730;51.248;22.534;2022-08-18T02:39:10;28.40;;;20.77;;
23121;SDS011;11730;51.248;22.534;2022-08-18T02:41:37;32.58;;;20.98;;
23121;SDS011;11730;51.248;22.534;2022-08-18T02:44:05;30.25;;;22.15;;
23121;SDS011;11730;51.248;22.534;2022-08-18T02:46:33;30.05;;;20.45;;
23121;SDS011;11730;51.248;22.534;2022-08-18T02:49:02;31.15;;;21.05;;
23121;SDS011;11730;51.248;22.534;2022-08-18T02:51:30;30.13;;;20.00;;
23121;SDS011;11730;51.248;22.534;2022-08-18T02:53:57;25.25;;;19.40;;
23121;SDS011;11730;51.248;22.534;2022-08-18T02:56:26;23.98;;;19.23;;
23121;SDS011;11730;51.248;22.534;2022-08-18T02:59:08;31.30;;;19.35;;
23121;SDS011;11730;51.248;22.534;2022-08-18T03:01:38;29.80;;;20.83;;
23121;SDS011;11730;51.248;22.534;2022-08-18T03:04:08;26.90;;;19.20;;
23121;SDS011;11730;51.248;22.534;2022-08-18T03:06:36;31.15;;;18.40;;
23121;SDS011;11730;51.248;22.534;2022-08-18T03:09:05;28.38;;;18.58;;
23121;SDS011;11730;51.248;22.534;2022-08-18T03:11:33;30.85;;;20.00;;
23121;SDS011;11730;51.248;22.534;2022-08-18T03:14:02;24.38;;;18.70;;
23121;SDS011;11730;51.248;22.534;2022-08-18T03:16:30;27.95;;;20.27;;
23121;SDS011;11730;51.248;22.534;2022-08-18T03:19:00;26.02;;;19.52;;
23121;SDS011;11730;51.248;22.534;2022-08-18T03:21:29;25.13;;;19.25;;
23121;SDS011;11730;51.248;22.534;2022-08-18T03:24:00;29.77;;;22.08;;
23121;SDS011;11730;51.248;22.534;2022-08-18T03:26:34;27.50;;;21.98;;
23121;SDS011;11730;51.248;22.534;2022-08-18T03:29:04;34.28;;;23.98;;
23121;SDS011;11730;51.248;22.534;2022-08-18T03:31:31;33.55;;;22.90;;
23121;SDS011;11730;51.248;22.534;2022-08-18T03:33:59;28.63;;;22.00;;
23121;SDS011;11730;51.248;22.534;2022-08-18T03:36:28;30.95;;;23.88;;
23121;SDS011;11730;51.248;22.534;2022-08-18T03:38:57;31.65;;;23.52;;
23121;SDS011;11730;51.248;22.534;2022-08-18T03:41:27;28.85;;;23.55;;
23121;SDS011;11730;51.248;22.534;2022-08-18T03:44:14;31.75;;;24.77;;
23121;SDS011;11730;51.248;22.534;2022-08-18T03:46:43;28.83;;;25.45;;
23121;SDS011;11730;51.248;22.534;2022-08-18T03:49:10;32.17;;;25.00;;
23121;SDS011;11730;51.248;22.534;2022-08-18T03:51:41;33.20;;;26.42;;
23121;SDS011;11730;51.248;22.534;2022-08-18T03:54:10;34.88;;;26.08;;
23121;SDS011;11730;51.248;22.534;2022-08-18T03:56:40;34.75;;;24.83;;
23121;SDS011;11730;51.248;22.534;2022-08-18T03:59:15;30.80;;;25.63;;
23121;SDS011;11730;51.248;22.534;2022-08-18T04:01:45;36.40;;;24.42;;
23121;SDS011;11730;51.248;22.534;2022-08-18T04:04:15;34.85;;;23.75;;
23121;SDS011;11730;51.248;22.534;2022-08-18T04:06:45;42.15;;;24.58;;
23121;SDS011;11730;51.248;22.534;2022-08-18T04:09:19;39.53;;;23.35;;
23121;SDS011;11730;51.248;22.534;2022-08-18T04:11:47;32.60;;;24.05;;
23121;SDS011;11730;51.248;22.534;2022-08-18T04:14:18;30.30;;;22.45;;
23121;SDS011;11730;51.248;22.534;2022-08-18T04:16:48;30.17;;;22.38;;
23121;SDS011;11730;51.248;22.534;2022-08-18T04:19:16;32.38;;;22.60;;
23121;SDS011;11730;51.248;22.534;2022-08-18T04:21:52;28.02;;;21.10;;
23121;SDS011;11730;51.248;22.534;2022-08-18T04:24:20;30.33;;;20.88;;
23121;SDS011;11730;51.248;22.534;2022-08-18T04:26:47;33.03;;;22.40;;
23121;SDS011;11730;51.248;22.534;2022-08-18T04:29:16;28.73;;;21.63;;
23121;SDS011;11730;51.248;22.534;2022-08-18T04:31:46;31.63;;;20.88;;
23121;SDS011;11730;51.248;22.534;2022-08-18T04:34:15;29.55;;;20.55;;
23121;SDS011;11730;51.248;22.534;2022-08-18T04:36:42;25.80;;;20.30;;
23121;SDS011;11730;51.248;22.534;2022-08-18T04:39:11;26.25;;;20.98;;
23121;SDS011;11730;51.248;22.534;2022-08-18T04:41:40;26.27;;;21.70;;
23121;SDS011;11730;51.248;22.534;2022-08-18T04:44:09;29.60;;;20.85;;
23121;SDS011;11730;51.248;22.534;2022-08-18T04:46:38;27.02;;;20.98;;
23121;SDS011;11730;51.248;22.534;2022-08-18T04:49:09;27.80;;;20.38;;
23121;SDS011;11730;51.248;22.534;2022-08-18T04:51:39;28.73;;;20.58;;
23121;SDS011;11730;51.248;22.534;2022-08-18T04:54:28;31.38;;;20.67;;
23121;SDS011;11730;51.248;22.534;2022-08-18T04:56:55;22.70;;;19.52;;
23121;SDS011;11730;51.248;22.534;2022-08-18T04:59:22;26.80;;;19.08;;
23121;SDS011;11730;51.248;22.534;2022-08-18T05:01:50;29.88;;;19.80;;
23121;SDS011;11730;51.248;22.534;2022-08-18T05:04:17;26.45;;;19.52;;
23121;SDS011;11730;51.248;22.534;2022-08-18T05:06:44;21.30;;;18.48;;
23121;SDS011;11730;51.248;22.534;2022-08-18T05:09:12;24.38;;;18.83;;
23121;SDS011;11730;51.248;22.534;2022-08-18T05:11:41;25.17;;;17.75;;
23121;SDS011;11730;51.248;22.534;2022-08-18T05:14:10;23.00;;;17.83;;
23121;SDS011;11730;51.248;22.534;2022-08-18T05:16:37;24.00;;;17.95;;
23121;SDS011;11730;51.248;22.534;2022-08-18T05:19:14;22.45;;;17.85;;
23121;SDS011;11730;51.248;22.534;2022-08-18T05:21:51;23.75;;;16.70;;
23121;SDS011;11730;51.248;22.534;2022-08-18T05:24:25;29.67;;;16.17;;
23121;SDS011;11730;51.248;22.534;2022-08-18T05:27:02;22.23;;;16.55;;
23121;SDS011;11730;51.248;22.534;2022-08-18T05:29:29;21.23;;;16.98;;
23121;SDS011;11730;51.248;22.534;2022-08-18T05:32:12;23.70;;;16.48;;
23121;SDS011;11730;51.248;22.534;2022-08-18T05:35:06;21.65;;;16.13;;
23121;SDS011;11730;51.248;22.534;2022-08-18T05:40:30;21.65;;;15.57;;
23121;SDS011;11730;51.248;22.534;2022-08-18T05:42:57;22.00;;;14.30;;
23121;SDS011;11730;51.248;22.534;2022-08-18T05:45:25;19.98;;;14.32;;
23121;SDS011;11730;51.248;22.534;2022-08-18T05:47:56;22.40;;;14.70;;
23121;SDS011;11730;51.248;22.534;2022-08-18T05:50:25;100.55;;;75.88;;
23121;SDS011;11730;51.248;22.534;2022-08-18T05:52:58;21.23;;;15.93;;
23121;SDS011;11730;51.248;22.534;2022-08-18T05:55:41;19.05;;;15.05;;
23121;SDS011;11730;51.248;22.534;2022-08-18T05:58:40;16.52;;;13.70;;
23121;SDS011;11730;51.248;22.534;2022-08-18T06:01:16;20.73;;;14.35;;
23121;SDS011;11730;51.248;22.534;2022-08-18T06:03:51;17.85;;;13.70;;
23121;SDS011;11730;51.248;22.534;2022-08-18T06:06:27;21.08;;;14.23;;
23121;SDS011;11730;51.248;22.534;2022-08-18T06:08:57;18.73;;;13.38;;
23121;SDS011;11730;51.248;22.534;2022-08-18T06:11:28;20.05;;;13.52;;
23121;SDS011;11730;51.248;22.534;2022-08-18T06:13:55;21.70;;;13.57;;
23121;SDS011;11730;51.248;22.534;2022-08-18T06:24:24;18.52;;;11.88;;
23121;SDS011;11730;51.248;22.534;2022-08-18T06:35:34;19.05;;;12.60;;
23121;SDS011;11730;51.248;22.534;2022-08-18T06:44:38;22.40;;;11.88;;
23121;SDS011;11730;51.248;22.534;2022-08-18T06:49:49;19.40;;;14.75;;
23121;SDS011;11730;51.248;22.534;2022-08-18T06:52:38;18.55;;;13.05;;
23121;SDS011;11730;51.248;22.534;2022-08-18T06:55:17;20.48;;;11.35;;
23121;SDS011;11730;51.248;22.534;2022-08-18T06:57:58;15.23;;;9.80;;
23121;SDS011;11730;51.248;22.534;2022-08-18T07:00:30;14.77;;;10.05;;
23121;SDS011;11730;51.248;22.534;2022-08-18T07:03:12;15.20;;;9.85;;
23121;SDS011;11730;51.248;22.534;2022-08-18T07:06:01;18.15;;;9.20;;
23121;SDS011;11730;51.248;22.534;2022-08-18T07:08:33;14.93;;;9.27;;
23121;SDS011;11730;51.248;22.534;2022-08-18T07:11:17;13.05;;;8.35;;
23121;SDS011;11730;51.248;22.534;2022-08-18T07:13:53;11.77;;;7.30;;
23121;SDS011;11730;51.248;22.534;2022-08-18T07:16:42;16.73;;;8.93;;
23121;SDS011;11730;51.248;22.534;2022-08-18T07:19:26;11.20;;;8.25;;
23121;SDS011;11730;51.248;22.534;2022-08-18T07:33:27;9.90;;;6.45;;
23121;SDS011;11730;51.248;22.534;2022-08-18T07:35:37;9.10;;;5.90;;
23121;SDS011;11730;51.248;22.534;2022-08-18T07:38:15;7.95;;;5.53;;
23121;SDS011;11730;51.248;22.534;2022-08-18T07:41:30;10.50;;;5.75;;
23121;SDS011;11730;51.248;22.534;2022-08-18T07:44:15;11.40;;;8.25;;
23121;SDS011;11730;51.248;22.534;2022-08-18T07:46:55;8.20;;;5.20;;
23121;SDS011;11730;51.248;22.534;2022-08-18T07:49:35;10.25;;;5.65;;
23121;SDS011;11730;51.248;22.534;2022-08-18T07:52:24;10.52;;;6.57;;
23121;SDS011;11730;51.248;22.534;2022-08-18T07:57:59;10.95;;;5.63;;
23121;SDS011;11730;51.248;22.534;2022-08-18T08:03:29;9.95;;;5.40;;
23121;SDS011;11730;51.248;22.534;2022-08-18T08:06:21;11.05;;;6.88;;
23121;SDS011;11730;51.248;22.534;2022-08-18T08:11:49;10.88;;;7.55;;
23121;SDS011;11730;51.248;22.534;2022-08-18T08:14:21;15.13;;;7.03;;
23121;SDS011;11730;51.248;22.534;2022-08-18T08:25:39;10.45;;;5.97;;
23121;SDS011;11730;51.248;22.534;2022-08-18T08:37:05;7.05;;;5.00;;
23121;SDS011;11730;51.248;22.534;2022-08-18T08:42:34;7.25;;;5.45;;
23121;SDS011;11730;51.248;22.534;2022-08-18T08:50:38;9.57;;;5.43;;
23121;SDS011;11730;51.248;22.534;2022-08-18T08:55:40;15.68;;;9.38;;
23121;SDS011;11730;51.248;22.534;2022-08-18T09:00:38;9.90;;;5.97;;
23121;SDS011;11730;51.248;22.534;2022-08-18T09:06:26;9.15;;;6.13;;
23121;SDS011;11730;51.248;22.534;2022-08-18T09:14:53;12.20;;;6.00;;
23121;SDS011;11730;51.248;22.534;2022-08-18T09:20:37;8.85;;;6.47;;
23121;SDS011;11730;51.248;22.534;2022-08-18T09:23:20;10.50;;;6.28;;
23121;SDS011;11730;51.248;22.534;2022-08-18T09:25:51;10.75;;;5.97;;
23121;SDS011;11730;51.248;22.534;2022-08-18T09:42:08;18.42;;;12.98;;
23121;SDS011;11730;51.248;22.534;2022-08-18T09:49:52;10.40;;;6.07;;
23121;SDS011;11730;51.248;22.534;2022-08-18T09:55:06;9.27;;;5.47;;
23121;SDS011;11730;51.248;22.534;2022-08-18T09:57:43;12.98;;;5.35;;
23121;SDS011;11730;51.248;22.534;2022-08-18T10:05:26;7.13;;;5.53;;
23121;SDS011;11730;51.248;22.534;2022-08-18T10:08:24;8.98;;;5.22;;
23121;SDS011;11730;51.248;22.534;2022-08-18T10:10:59;11.40;;;5.43;;
23121;SDS011;11730;51.248;22.534;2022-08-18T10:14:10;13.38;;;5.10;;
23121;SDS011;11730;51.248;22.534;2022-08-18T10:20:22;11.35;;;6.97;;
23121;SDS011;11730;51.248;22.534;2022-08-18T10:23:09;11.05;;;5.72;;
23121;SDS011;11730;51.248;22.534;2022-08-18T10:25:40;10.40;;;5.55;;
23121;SDS011;11730;51.248;22.534;2022-08-18T10:31:18;11.68;;;5.60;;
23121;SDS011;11730;51.248;22.534;2022-08-18T10:36:31;10.13;;;5.68;;
23121;SDS011;11730;51.248;22.534;2022-08-18T10:39:17;11.02;;;5.35;;
23121;SDS011;11730;51.248;22.534;2022-08-18T10:44:39;12.10;;;5.55;;
23121;SDS011;11730;51.248;22.534;2022-08-18T10:47:22;9.40;;;5.53;;
23121;SDS011;11730;51.248;22.534;2022-08-18T10:50:00;14.38;;;8.38;;
23121;SDS011;11730;51.248;22.534;2022-08-18T11:06:39;9.73;;;7.53;;
23121;SDS011;11730;51.248;22.534;2022-08-18T11:09:10;7.78;;;6.40;;
23121;SDS011;11730;51.248;22.534;2022-08-18T11:11:38;9.57;;;4.88;;
23121;SDS011;11730;51.248;22.534;2022-08-18T11:19:51;12.23;;;4.45;;
23121;SDS011;11730;51.248;22.534;2022-08-18T11:22:21;6.78;;;4.00;;
23121;SDS011;11730;51.248;22.534;2022-08-18T11:25:45;8.18;;;4.65;;
23121;SDS011;11730;51.248;22.534;2022-08-18T11:28:18;11.77;;;4.70;;
23121;SDS011;11730;51.248;22.534;2022-08-18T11:30:54;8.95;;;4.30;;
23121;SDS011;11730;51.248;22.534;2022-08-18T11:33:22;9.80;;;4.60;;
23121;SDS011;11730;51.248;22.534;2022-08-18T11:35:56;8.30;;;4.43;;
23121;SDS011;11730;51.248;22.534;2022-08-18T11:38:27;8.52;;;4.78;;
23121;SDS011;11730;51.248;22.534;2022-08-18T11:41:11;7.22;;;4.57;;
23121;SDS011;11730;51.248;22.534;2022-08-18T11:43:44;12.25;;;4.63;;
23121;SDS011;11730;51.248;22.534;2022-08-18T11:48:54;6.75;;;4.65;;
23121;SDS011;11730;51.248;22.534;2022-08-18T11:51:25;8.15;;;4.28;;
23121;SDS011;11730;51.248;22.534;2022-08-18T11:56:27;11.07;;;5.05;;
23121;SDS011;11730;51.248;22.534;2022-08-18T11:59:07;10.52;;;5.10;;
23121;SDS011;11730;51.248;22.534;2022-08-18T12:02:16;11.93;;;5.32;;
23121;SDS011;11730;51.248;22.534;2022-08-18T12:04:47;12.35;;;5.50;;
23121;SDS011;11730;51.248;22.534;2022-08-18T12:07:52;11.35;;;5.35;;
23121;SDS011;11730;51.248;22.534;2022-08-18T12:10:23;7.75;;;5.10;;
23121;SDS011;11730;51.248;22.534;2022-08-18T12:13:22;7.35;;;4.65;;
23121;SDS011;11730;51.248;22.534;2022-08-18T12:19:03;11.73;;;5.28;;
23121;SDS011;11730;51.248;22.534;2022-08-18T12:21:56;10.00;;;4.90;;
23121;SDS011;11730;51.248;22.534;2022-08-18T12:27:02;9.88;;;4.53;;
23121;SDS011;11730;51.248;22.534;2022-08-18T12:29:47;11.32;;;4.40;;
23121;SDS011;11730;51.248;22.534;2022-08-18T12:32:24;8.23;;;5.20;;
23121;SDS011;11730;51.248;22.534;2022-08-18T12:35:12;12.35;;;5.35;;
23121;SDS011;11730;51.248;22.534;2022-08-18T12:37:41;8.40;;;4.65;;
23121;SDS011;11730;51.248;22.534;2022-08-18T12:40:30;8.05;;;5.32;;
23121;SDS011;11730;51.248;22.534;2022-08-18T12:42:58;10.32;;;4.78;;
23121;SDS011;11730;51.248;22.534;2022-08-18T12:45:25;12.80;;;5.22;;
23121;SDS011;11730;51.248;22.534;2022-08-18T12:47:54;12.07;;;6.70;;
23121;SDS011;11730;51.248;22.534;2022-08-18T12:50:21;13.27;;;7.30;;
23121;SDS011;11730;51.248;22.534;2022-08-18T12:53:00;11.40;;;5.88;;
23121;SDS011;11730;51.248;22.534;2022-08-18T12:55:28;11.43;;;6.53;;
23121;SDS011;11730;51.248;22.534;2022-08-18T12:58:00;8.48;;;4.75;;
23121;SDS011;11730;51.248;22.534;2022-08-18T13:00:30;11.75;;;4.65;;
23121;SDS011;11730;51.248;22.534;2022-08-18T13:02:57;11.85;;;4.93;;
23121;SDS011;11730;51.248;22.534;2022-08-18T13:05:24;8.25;;;4.97;;
23121;SDS011;11730;51.248;22.534;2022-08-18T13:07:56;9.55;;;4.57;;
23121;SDS011;11730;51.248;22.534;2022-08-18T13:10:30;15.30;;;5.45;;
23121;SDS011;11730;51.248;22.534;2022-08-18T13:13:12;9.23;;;5.82;;
23121;SDS011;11730;51.248;22.534;2022-08-18T13:15:45;9.90;;;5.05;;
23121;SDS011;11730;51.248;22.534;2022-08-18T13:18:24;11.52;;;4.85;;
23121;SDS011;11730;51.248;22.534;2022-08-18T13:20:55;9.73;;;5.15;;
23121;SDS011;11730;51.248;22.534;2022-08-18T13:23:25;13.65;;;6.70;;
23121;SDS011;11730;51.248;22.534;2022-08-18T13:25:54;8.65;;;5.63;;
23121;SDS011;11730;51.248;22.534;2022-08-18T13:28:28;6.97;;;4.82;;
23121;SDS011;11730;51.248;22.534;2022-08-18T13:31:02;12.30;;;5.45;;
23121;SDS011;11730;51.248;22.534;2022-08-18T13:33:31;11.32;;;5.20;;
23121;SDS011;11730;51.248;22.534;2022-08-18T13:36:19;11.48;;;4.38;;
23121;SDS011;11730;51.248;22.534;2022-08-18T13:38:48;12.18;;;4.47;;
23121;SDS011;11730;51.248;22.534;2022-08-18T13:43:49;9.55;;;5.20;;
23121;SDS011;11730;51.248;22.534;2022-08-18T13:46:17;12.18;;;5.97;;
23121;SDS011;11730;51.248;22.534;2022-08-18T13:48:55;10.60;;;5.60;;
23121;SDS011;11730;51.248;22.534;2022-08-18T13:51:28;7.63;;;4.65;;
23121;SDS011;11730;51.248;22.534;2022-08-18T13:53:56;8.93;;;4.88;;
23121;SDS011;11730;51.248;22.534;2022-08-18T13:56:43;8.18;;;4.57;;
23121;SDS011;11730;51.248;22.534;2022-08-18T13:59:17;41.20;;;30.63;;
23121;SDS011;11730;51.248;22.534;2022-08-18T14:01:46;8.25;;;5.22;;
23121;SDS011;11730;51.248;22.534;2022-08-18T14:04:18;15.20;;;4.57;;
23121;SDS011;11730;51.248;22.534;2022-08-18T14:06:49;10.18;;;5.07;;
23121;SDS011;11730;51.248;22.534;2022-08-18T14:09:22;7.65;;;4.03;;
23121;SDS011;11730;51.248;22.534;2022-08-18T14:12:06;11.18;;;4.90;;
23121;SDS011;11730;51.248;22.534;2022-08-18T14:14:48;8.05;;;4.57;;
23121;SDS011;11730;51.248;22.534;2022-08-18T14:17:17;13.50;;;4.80;;
23121;SDS011;11730;51.248;22.534;2022-08-18T14:19:48;11.30;;;4.18;;
23121;SDS011;11730;51.248;22.534;2022-08-18T14:22:48;6.15;;;4.20;;
23121;SDS011;11730;51.248;22.534;2022-08-18T14:25:47;7.50;;;5.25;;
23121;SDS011;11730;51.248;22.534;2022-08-18T14:28:33;8.77;;;4.57;;
23121;SDS011;11730;51.248;22.534;2022-08-18T14:31:04;13.50;;;4.68;;
23121;SDS011;11730;51.248;22.534;2022-08-18T14:33:32;10.32;;;4.53;;
23121;SDS011;11730;51.248;22.534;2022-08-18T14:36:17;14.98;;;5.07;;
23121;SDS011;11730;51.248;22.534;2022-08-18T14:38:54;10.25;;;6.60;;
23121;SDS011;11730;51.248;22.534;2022-08-18T14:41:22;8.25;;;5.18;;
23121;SDS011;11730;51.248;22.534;2022-08-18T14:43:52;11.55;;;5.50;;
23121;SDS011;11730;51.248;22.534;2022-08-18T14:46:38;12.35;;;5.25;;
23121;SDS011;11730;51.248;22.534;2022-08-18T14:49:06;8.60;;;4.82;;
23121;SDS011;11730;51.248;22.534;2022-08-18T14:51:33;10.60;;;4.85;;
23121;SDS011;11730;51.248;22.534;2022-08-18T14:54:04;10.55;;;5.10;;
23121;SDS011;11730;51.248;22.534;2022-08-18T14:56:33;8.75;;;4.88;;
23121;SDS011;11730;51.248;22.534;2022-08-18T14:59:05;11.52;;;5.00;;
23121;SDS011;11730;51.248;22.534;2022-08-18T15:01:34;12.05;;;5.47;;
23121;SDS011;11730;51.248;22.534;2022-08-18T15:04:08;12.88;;;7.70;;
23121;SDS011;11730;51.248;22.534;2022-08-18T15:06:45;9.20;;;5.20;;
23121;SDS011;11730;51.248;22.534;2022-08-18T15:09:22;9.18;;;5.57;;
23121;SDS011;11730;51.248;22.534;2022-08-18T15:11:52;10.20;;;5.35;;
23121;SDS011;11730;51.248;22.534;2022-08-18T15:14:22;13.85;;;5.53;;
23121;SDS011;11730;51.248;22.534;2022-08-18T15:16:59;11.07;;;5.72;;
23121;SDS011;11730;51.248;22.534;2022-08-18T15:19:38;10.27;;;5.40;;
23121;SDS011;11730;51.248;22.534;2022-08-18T15:22:25;10.70;;;5.47;;
23121;SDS011;11730;51.248;22.534;2022-08-18T15:25:13;10.65;;;5.18;;
23121;SDS011;11730;51.248;22.534;2022-08-18T15:27:58;6.97;;;4.82;;
23121;SDS011;11730;51.248;22.534;2022-08-18T15:30:26;9.80;;;5.30;;
23121;SDS011;11730;51.248;22.534;2022-08-18T15:32:53;15.20;;;5.07;;
23121;SDS011;11730;51.248;22.534;2022-08-18T15:35:20;8.85;;;5.72;;
23121;SDS011;11730;51.248;22.534;2022-08-18T15:37:47;10.63;;;5.45;;
23121;SDS011;11730;51.248;22.534;2022-08-18T15:40:20;9.10;;;5.32;;
23121;SDS011;11730;51.248;22.534;2022-08-18T15:43:00;10.63;;;5.20;;
23121;SDS011;11730;51.248;22.534;2022-08-18T15:45:36;10.63;;;5.60;;
23121;SDS011;11730;51.248;22.534;2022-08-18T15:48:21;18.10;;;7.35;;
23121;SDS011;11730;51.248;22.534;2022-08-18T15:50:49;12.23;;;6.22;;
23121;SDS011;11730;51.248;22.534;2022-08-18T15:53:18;18.52;;;5.85;;
23121;SDS011;11730;51.248;22.534;2022-08-18T15:55:47;9.00;;;5.03;;
23121;SDS011;11730;51.248;22.534;2022-08-18T15:58:15;12.75;;;6.30;;
23121;SDS011;11730;51.248;22.534;2022-08-18T16:00:47;7.55;;;5.70;;
23121;SDS011;11730;51.248;22.534;2022-08-18T16:03:17;14.90;;;5.75;;
23121;SDS011;11730;51.248;22.534;2022-08-18T16:05:50;11.18;;;6.40;;
23121;SDS011;11730;51.248;22.534;2022-08-18T16:08:19;16.17;;;9.57;;
23121;SDS011;11730;51.248;22.534;2022-08-18T16:10:49;12.60;;;5.82;;
23121;SDS011;11730;51.248;22.534;2022-08-18T16:13:17;11.85;;;5.80;;
23121;SDS011;11730;51.248;22.534;2022-08-18T16:15:45;10.48;;;5.25;;
23121;SDS011;11730;51.248;22.534;2022-08-18T16:18:14;11.25;;;6.10;;
23121;SDS011;11730;51.248;22.534;2022-08-18T16:20:42;10.07;;;6.60;;
23121;SDS011;11730;51.248;22.534;2022-08-18T16:23:10;13.95;;;6.47;;
23121;SDS011;11730;51.248;22.534;2022-08-18T16:25:38;12.27;;;6.28;;
23121;SDS011;11730;51.248;22.534;2022-08-18T16:28:06;10.93;;;5.97;;
23121;SDS011;11730;51.248;22.534;2022-08-18T16:30:33;11.85;;;5.90;;
23121;SDS011;11730;51.248;22.534;2022-08-18T16:33:02;11.82;;;5.35;;
23121;SDS011;11730;51.248;22.534;2022-08-18T16:35:30;11.60;;;6.35;;
23121;SDS011;11730;51.248;22.534;2022-08-18T16:38:01;11.60;;;6.60;;
23121;SDS011;11730;51.248;22.534;2022-08-18T16:40:30;12.88;;;5.65;;
23121;SDS011;11730;51.248;22.534;2022-08-18T16:42:57;15.25;;;6.00;;
23121;SDS011;11730;51.248;22.534;2022-08-18T16:45:26;10.23;;;5.72;;
23121;SDS011;11730;51.248;22.534;2022-08-18T16:47:54;14.23;;;5.93;;
23121;SDS011;11730;51.248;22.534;2022-08-18T16:50:21;11.02;;;5.78;;
23121;SDS011;11730;51.248;22.534;2022-08-18T16:52:50;19.13;;;6.80;;
23121;SDS011;11730;51.248;22.534;2022-08-18T16:55:17;8.32;;;5.22;;
23121;SDS011;11730;51.248;22.534;2022-08-18T16:57:45;14.27;;;7.03;;
23121;SDS011;11730;51.248;22.534;2022-08-18T17:00:31;16.40;;;5.60;;
23121;SDS011;11730;51.248;22.534;2022-08-18T17:03:21;8.95;;;5.05;;
23121;SDS011;11730;51.248;22.534;2022-08-18T17:06:09;11.38;;;6.03;;
23121;SDS011;11730;51.248;22.534;2022-08-18T17:08:39;12.38;;;7.55;;
23121;SDS011;11730;51.248;22.534;2022-08-18T17:11:12;10.77;;;6.30;;
23121;SDS011;11730;51.248;22.534;2022-08-18T17:13:41;21.92;;;13.88;;
23121;SDS011;11730;51.248;22.534;2022-08-18T17:16:09;24.67;;;17.08;;
23121;SDS011;11730;51.248;22.534;2022-08-18T17:18:37;13.85;;;6.45;;
23121;SDS011;11730;51.248;22.534;2022-08-18T17:21:06;23.67;;;15.27;;
23121;SDS011;11730;51.248;22.534;2022-08-18T17:23:35;20.52;;;12.40;;
23121;SDS011;11730;51.248;22.534;2022-08-18T17:26:05;18.85;;;7.93;;
23121;SDS011;11730;51.248;22.534;2022-08-18T17:28:40;22.80;;;13.65;;
23121;SDS011;11730;51.248;22.534;2022-08-18T17:31:17;40.20;;;27.00;;
23121;SDS011;11730;51.248;22.534;2022-08-18T17:33:47;16.00;;;10.17;;
23121;SDS011;11730;51.248;22.534;2022-08-18T17:36:20;17.73;;;9.82;;
23121;SDS011;11730;51.248;22.534;2022-08-18T17:38:54;18.10;;;9.57;;
23121;SDS011;11730;51.248;22.534;2022-08-18T17:41:25;16.17;;;10.43;;
23121;SDS011;11730;51.248;22.534;2022-08-18T17:43:56;18.38;;;8.45;;